sensor_id;sensor_type;location;lat;lon;timestamp;pressure;altitude;pressure_sealevel;temperature;humidity
13690;BME280;6917;52.194;9.894;2023-02-19T00:01:39;100233.81;;;8.13;100.00
13690;BME280;6917;52.194;9.894;2023-02-19T00:04:19;100231.91;;;8.14;100.00
13690;BME280;6917;52.194;9.894;2023-02-19T00:06:46;100231.91;;;8.14;100.00
13690;BME280;6917;52.194;9.894;2023-02-19T00:09:13;100231.91;;;8.14;100.00
13690;BME280;6917;52.194;9.894;2023-02-19T00:11:40;100230.28;;;8.13;100.00
13690;BME280;6917;52.194;9.894;2023-02-19T00:14:05;100238.47;;;8.13;100.00
13690;BME280;6917;52.194;9.894;2023-02-19T00:16:34;100234.63;;;8.14;100.00
13690;BME280;6917;52.194;9.894;2023-02-19T00:19:01;100223.53;;;8.10;100.00
13690;BME280;6917;52.194;9.894;2023-02-19T00:21:27;100230.88;;;8.10;100.00
13690;BME280;6917;52.194;9.894;2023-02-19T00:23:55;100219.97;;;8.10;100.00
13690;BME280;6917;52.194;9.894;2023-02-19T00:26:21;100223.53;;;8.10;100.00
13690;BME280;6917;52.194;9.894;2023-02-19T00:28:48;100211.81;;;8.10;100.00
13690;BME280;6917;52.194;9.894;2023-02-19T00:31:22;100210.22;;;8.09;100.00
13690;BME280;6917;52.194;9.894;2023-02-19T00:33:51;100205.00;;;8.12;100.00
13690;BME280;6917;52.194;9.894;2023-02-19T00:36:16;100201.66;;;8.15;100.00
13690;BME280;6917;52.194;9.894;2023-02-19T00:38:43;100203.59;;;8.15;100.00
13690;BME280;6917;52.194;9.894;2023-02-19T00:41:09;100202.66;;;8.19;100.00
13690;BME280;6917;52.194;9.894;2023-02-19T00:46:24;100203.69;;;8.23;100.00
13690;BME280;6917;52.194;9.894;2023-02-19T00:48:50;100193.31;;;8.25;100.00
13690;BME280;6917;52.194;9.894;2023-02-19T00:51:17;100185.34;;;8.29;100.00
13690;BME280;6917;52.194;9.894;2023-02-19T00:53:43;100187.69;;;8.35;100.00
13690;BME280;6917;52.194;9.894;2023-02-19T00:56:08;100181.13;;;8.37;100.00
13690;BME280;6917;52.194;9.894;2023-02-19T00:58:34;100171.84;;;8.38;100.00
13690;BME280;6917;52.194;9.894;2023-02-19T01:00:59;100155.53;;;8.38;100.00
13690;BME280;6917;52.194;9.894;2023-02-19T01:03:25;100147.34;;;8.38;100.00
13690;BME280;6917;52.194;9.894;2023-02-19T01:05:51;100133.47;;;8.39;100.00
13690;BME280;6917;52.194;9.894;2023-02-19T01:08:16;100144.94;;;8.36;100.00
13690;BME280;6917;52.194;9.894;2023-02-19T01:10:42;100139.28;;;8.32;100.00
13690;BME280;6917;52.194;9.894;2023-02-19T01:13:07;100135.44;;;8.33;100.00
13690;BME280;6917;52.194;9.894;2023-02-19T01:15:33;100145.25;;;8.34;100.00
13690;BME280;6917;52.194;9.894;2023-02-19T01:17:58;100146.31;;;8.33;100.00
13690;BME280;6917;52.194;9.894;2023-02-19T01:20:24;100144.72;;;8.32;100.00
13690;BME280;6917;52.194;9.894;2023-02-19T01:22:50;100134.63;;;8.33;100.00
13690;BME280;6917;52.194;9.894;2023-02-19T01:25:16;100124.56;;;8.33;100.00
13690;BME280;6917;52.194;9.894;2023-02-19T01:27:41;100120.75;;;8.34;100.00
13690;BME280;6917;52.194;9.894;2023-02-19T01:30:07;100126.69;;;8.37;100.00
13690;BME280;6917;52.194;9.894;2023-02-19T01:32:32;100124.47;;;8.39;100.00
13690;BME280;6917;52.194;9.894;2023-02-19T01:34:57;100111.69;;;8.39;100.00
13690;BME280;6917;52.194;9.894;2023-02-19T01:37:23;100134.28;;;8.40;100.00
13690;BME280;6917;52.194;9.894;2023-02-19T01:39:48;100127.72;;;8.41;100.00
13690;BME280;6917;52.194;9.894;2023-02-19T01:42:14;100148.97;;;8.39;100.00
13690;BME280;6917;52.194;9.894;2023-02-19T01:47:09;100150.06;;;8.38;100.00
13690;BME280;6917;52.194;9.894;2023-02-19T01:49:41;100146.31;;;8.33;100.00
13690;BME280;6917;52.194;9.894;2023-02-19T01:52:19;100129.00;;;8.29;100.00
13690;BME280;6917;52.194;9.894;2023-02-19T01:54:47;100135.63;;;8.23;100.00
13690;BME280;6917;52.194;9.894;2023-02-19T01:57:18;100135.13;;;8.21;100.00
13690;BME280;6917;52.194;9.894;2023-02-19T01:59:46;100125.38;;;8.20;100.00
13690;BME280;6917;52.194;9.894;2023-02-19T02:02:14;100121.03;;;8.19;100.00
13690;BME280;6917;52.194;9.894;2023-02-19T02:04:40;100116.09;;;8.21;100.00
13690;BME280;6917;52.194;9.894;2023-02-19T02:07:05;100121.53;;;8.21;100.00
13690;BME280;6917;52.194;9.894;2023-02-19T02:09:54;100134.53;;;8.24;100.00
13690;BME280;6917;52.194;9.894;2023-02-19T02:12:38;100134.53;;;8.24;100.00
13690;BME280;6917;52.194;9.894;2023-02-19T02:15:04;100119.63;;;8.22;100.00
13690;BME280;6917;52.194;9.894;2023-02-19T02:17:56;100104.31;;;8.12;100.00
13690;BME280;6917;52.194;9.894;2023-02-19T02:24:08;100110.66;;;7.94;100.00
13690;BME280;6917;52.194;9.894;2023-02-19T02:29:30;100093.94;;;7.87;100.00
13690;BME280;6917;52.194;9.894;2023-02-19T02:32:09;100090.22;;;7.83;100.00
13690;BME280;6917;52.194;9.894;2023-02-19T02:34:40;100095.34;;;7.84;100.00
13690;BME280;6917;52.194;9.894;2023-02-19T02:37:11;100095.56;;;7.88;100.00
13690;BME280;6917;52.194;9.894;2023-02-19T02:39:37;100107.44;;;7.92;100.00
13690;BME280;6917;52.194;9.894;2023-02-19T02:42:03;100102.50;;;7.94;100.00
13690;BME280;6917;52.194;9.894;2023-02-19T02:44:47;100105.75;;;7.96;100.00
13690;BME280;6917;52.194;9.894;2023-02-19T02:47:35;100099.19;;;7.97;100.00
13690;BME280;6917;52.194;9.894;2023-02-19T02:50:22;100094.75;;;8.01;100.00
13690;BME280;6917;52.194;9.894;2023-02-19T02:52:52;100098.66;;;8.09;100.00
13690;BME280;6917;52.194;9.894;2023-02-19T02:55:43;100095.06;;;8.13;100.00
13690;BME280;6917;52.194;9.894;2023-02-19T02:58:09;100104.41;;;8.21;100.00
13690;BME280;6917;52.194;9.894;2023-02-19T03:00:36;100103.78;;;8.24;100.00
13690;BME280;6917;52.194;9.894;2023-02-19T03:03:23;100112.75;;;8.24;100.00
13690;BME280;6917;52.194;9.894;2023-02-19T03:05:53;100087.69;;;8.27;100.00
13690;BME280;6917;52.194;9.894;2023-02-19T03:08:39;100094.25;;;8.26;100.00
13690;BME280;6917;52.194;9.894;2023-02-19T03:11:08;100098.56;;;8.27;100.00
13690;BME280;6917;52.194;9.894;2023-02-19T03:14:02;100090.28;;;8.32;100.00
13690;BME280;6917;52.194;9.894;2023-02-19T03:16:50;100109.34;;;8.32;100.00
13690;BME280;6917;52.194;9.894;2023-02-19T03:19:37;100106.63;;;8.32;100.00
13690;BME280;6917;52.194;9.894;2023-02-19T03:22:35;100100.06;;;8.33;100.00
13690;BME280;6917;52.194;9.894;2023-02-19T03:25:12;100100.38;;;8.32;100.00
13690;BME280;6917;52.194;9.894;2023-02-19T03:27:59;100103.63;;;8.34;100.00
13690;BME280;6917;52.194;9.894;2023-02-19T03:30:31;100112.59;;;8.34;100.00
13690;BME280;6917;52.194;9.894;2023-02-19T03:33:21;100104.91;;;8.37;100.00
13690;BME280;6917;52.194;9.894;2023-02-19T03:36:01;100103.53;;;8.39;100.00
13690;BME280;6917;52.194;9.894;2023-02-19T03:38:47;100117.41;;;8.38;100.00
13690;BME280;6917;52.194;9.894;2023-02-19T03:43:51;100113.09;;;8.37;100.00
13690;BME280;6917;52.194;9.894;2023-02-19T03:46:34;100131.03;;;8.38;100.00
13690;BME280;6917;52.194;9.894;2023-02-19T03:49:17;100126.38;;;8.38;100.00
13690;BME280;6917;52.194;9.894;2023-02-19T03:51:54;100122.06;;;8.37;100.00
13690;BME280;6917;52.194;9.894;2023-02-19T03:54:37;100128.31;;;8.38;100.00
13690;BME280;6917;52.194;9.894;2023-02-19T04:00:18;100137.88;;;8.35;100.00
13690;BME280;6917;52.194;9.894;2023-02-19T04:02:57;100156.63;;;8.37;100.00
13690;BME280;6917;52.194;9.894;2023-02-19T04:05:29;100176.13;;;7.70;100.00
13690;BME280;6917;52.194;9.894;2023-02-19T04:08:01;100163.91;;;6.83;100.00
13690;BME280;6917;52.194;9.894;2023-02-19T04:10:28;100170.84;;;6.52;100.00
13690;BME280;6917;52.194;9.894;2023-02-19T04:13:09;100183.31;;;6.53;100.00
13690;BME280;6917;52.194;9.894;2023-02-19T04:15:39;100174.00;;;6.35;100.00
13690;BME280;6917;52.194;9.894;2023-02-19T04:18:13;100187.72;;;6.25;100.00
13690;BME280;6917;52.194;9.894;2023-02-19T04:20:43;100183.03;;;6.31;100.00
13690;BME280;6917;52.194;9.894;2023-02-19T04:23:09;100194.44;;;6.04;100.00
13690;BME280;6917;52.194;9.894;2023-02-19T04:25:37;100200.44;;;6.01;100.00
13690;BME280;6917;52.194;9.894;2023-02-19T04:28:03;100199.25;;;6.12;100.00
13690;BME280;6917;52.194;9.894;2023-02-19T04:30:29;100218.97;;;5.93;100.00
13690;BME280;6917;52.194;9.894;2023-02-19T04:32:55;100223.88;;;5.86;100.00
13690;BME280;6917;52.194;9.894;2023-02-19T04:35:20;100217.94;;;5.84;100.00
13690;BME280;6917;52.194;9.894;2023-02-19T04:37:45;100223.88;;;5.86;100.00
13690;BME280;6917;52.194;9.894;2023-02-19T04:40:10;100226.13;;;5.79;100.00
13690;BME280;6917;52.194;9.894;2023-02-19T04:42:36;100229.38;;;5.76;100.00
13690;BME280;6917;52.194;9.894;2023-02-19T04:45:01;100242.47;;;5.69;100.00
13690;BME280;6917;52.194;9.894;2023-02-19T04:47:26;100234.28;;;5.74;100.00
13690;BME280;6917;52.194;9.894;2023-02-19T04:49:52;100245.91;;;5.75;100.00
13690;BME280;6917;52.194;9.894;2023-02-19T04:52:17;100245.47;;;5.62;100.00
13690;BME280;6917;52.194;9.894;2023-02-19T04:54:42;100249.09;;;5.53;100.00
13690;BME280;6917;52.194;9.894;2023-02-19T04:57:08;100255.34;;;5.48;100.00
13690;BME280;6917;52.194;9.894;2023-02-19T04:59:33;100254.81;;;5.46;100.00
13690;BME280;6917;52.194;9.894;2023-02-19T05:01:58;100258.78;;;5.59;100.00
13690;BME280;6917;52.194;9.894;2023-02-19T05:04:24;100265.91;;;5.50;100.00
13690;BME280;6917;52.194;9.894;2023-02-19T05:06:49;100270.59;;;5.39;100.00
13690;BME280;6917;52.194;9.894;2023-02-19T05:09:14;100269.78;;;5.33;100.00
13690;BME280;6917;52.194;9.894;2023-02-19T05:11:40;100279.34;;;5.26;100.00
13690;BME280;6917;52.194;9.894;2023-02-19T05:14:05;100283.41;;;5.23;100.00
13690;BME280;6917;52.194;9.894;2023-02-19T05:16:31;100288.84;;;5.23;100.00
13690;BME280;6917;52.194;9.894;2023-02-19T05:18:57;100291.84;;;5.22;100.00
13690;BME280;6917;52.194;9.894;2023-02-19T05:21:23;100309.41;;;5.19;100.00
13690;BME280;6917;52.194;9.894;2023-02-19T05:23:49;100318.16;;;5.11;100.00
13690;BME280;6917;52.194;9.894;2023-02-19T05:26:17;100330.88;;;5.11;100.00
13690;BME280;6917;52.194;9.894;2023-02-19T05:28:44;100334.38;;;5.11;100.00
13690;BME280;6917;52.194;9.894;2023-02-19T05:31:10;100346.84;;;5.12;100.00
13690;BME280;6917;52.194;9.894;2023-02-19T05:33:36;100330.06;;;5.10;100.00
13690;BME280;6917;52.194;9.894;2023-02-19T05:36:08;100338.22;;;5.00;100.00
13690;BME280;6917;52.194;9.894;2023-02-19T05:38:34;100340.41;;;4.98;100.00
13690;BME280;6917;52.194;9.894;2023-02-19T05:41:27;100344.19;;;4.97;100.00
13690;BME280;6917;52.194;9.894;2023-02-19T05:43:53;100357.44;;;4.98;100.00
13690;BME280;6917;52.194;9.894;2023-02-19T05:46:21;100347.19;;;4.95;100.00
13690;BME280;6917;52.194;9.894;2023-02-19T05:48:47;100353.41;;;4.96;100.00
13690;BME280;6917;52.194;9.894;2023-02-19T05:51:16;100355.63;;;4.73;100.00
13690;BME280;6917;52.194;9.894;2023-02-19T05:53:42;100359.97;;;4.69;100.00
13690;BME280;6917;52.194;9.894;2023-02-19T05:56:26;100359.44;;;4.62;100.00
13690;BME280;6917;52.194;9.894;2023-02-19T05:58:52;100369.72;;;4.60;100.00
13690;BME280;6917;52.194;9.894;2023-02-19T06:01:20;100381.88;;;4.63;100.00
13690;BME280;6917;52.194;9.894;2023-02-19T06:03:46;100382.72;;;4.58;100.00
13690;BME280;6917;52.194;9.894;2023-02-19T06:06:16;100382.19;;;4.56;100.00
13690;BME280;6917;52.194;9.894;2023-02-19T06:08:42;100392.47;;;4.54;100.00
13690;BME280;6917;52.194;9.894;2023-02-19T06:11:07;100401.94;;;4.57;100.00
13690;BME280;6917;52.194;9.894;2023-02-19T06:13:33;100406.81;;;4.55;100.00
13690;BME280;6917;52.194;9.894;2023-02-19T06:15:58;100409.50;;;4.44;100.00
13690;BME280;6917;52.194;9.894;2023-02-19T06:18:24;100424.94;;;4.29;100.00
13690;BME280;6917;52.194;9.894;2023-02-19T06:20:49;100432.50;;;4.16;100.00
13690;BME280;6917;52.194;9.894;2023-02-19T06:23:14;100448.19;;;4.14;100.00
13690;BME280;6917;52.194;9.894;2023-02-19T06:25:40;100454.41;;;4.10;100.00
13690;BME280;6917;52.194;9.894;2023-02-19T06:28:06;100461.69;;;4.09;100.00
13690;BME280;6917;52.194;9.894;2023-02-19T06:30:33;100471.66;;;3.94;100.00
13690;BME280;6917;52.194;9.894;2023-02-19T06:32:58;100470.53;;;3.79;100.00
13690;BME280;6917;52.194;9.894;2023-02-19T06:35:24;100480.81;;;3.82;100.00
13690;BME280;6917;52.194;9.894;2023-02-19T06:37:49;100485.72;;;3.91;100.00
13690;BME280;6917;52.194;9.894;2023-02-19T06:40:15;100481.94;;;3.92;100.00
13690;BME280;6917;52.194;9.894;2023-02-19T06:42:40;100490.00;;;3.81;100.00
13690;BME280;6917;52.194;9.894;2023-02-19T06:45:06;100497.53;;;3.74;100.00
13690;BME280;6917;52.194;9.894;2023-02-19T06:47:32;100511.03;;;3.69;100.00
13690;BME280;6917;52.194;9.894;2023-02-19T06:49:59;100512.38;;;3.67;100.00
13690;BME280;6917;52.194;9.894;2023-02-19T06:52:25;100524.53;;;3.64;100.00
13690;BME280;6917;52.194;9.894;2023-02-19T06:54:50;100526.06;;;3.50;100.00
13690;BME280;6917;52.194;9.894;2023-02-19T06:57:16;100533.66;;;3.53;100.00
13690;BME280;6917;52.194;9.894;2023-02-19T06:59:42;100543.31;;;3.44;100.00
13690;BME280;6917;52.194;9.894;2023-02-19T07:02:10;100556.25;;;3.42;100.00
13690;BME280;6917;52.194;9.894;2023-02-19T07:04:35;100559.47;;;3.34;100.00
13690;BME280;6917;52.194;9.894;2023-02-19T07:07:01;100571.78;;;3.19;100.00
13690;BME280;6917;52.194;9.894;2023-02-19T07:09:26;100586.75;;;3.00;100.00
13690;BME280;6917;52.194;9.894;2023-02-19T07:11:52;100595.66;;;3.01;100.00
13690;BME280;6917;52.194;9.894;2023-02-19T07:14:18;100597.25;;;2.96;100.00
13690;BME280;6917;52.194;9.894;2023-02-19T07:16:45;100608.31;;;2.95;100.00
13690;BME280;6917;52.194;9.894;2023-02-19T07:19:11;100603.91;;;2.89;100.00
13690;BME280;6917;52.194;9.894;2023-02-19T07:21:37;100619.28;;;2.88;100.00
13690;BME280;6917;52.194;9.894;2023-02-19T07:24:04;100630.19;;;2.98;100.00
13690;BME280;6917;52.194;9.894;2023-02-19T07:26:30;100641.75;;;2.94;100.00
13690;BME280;6917;52.194;9.894;2023-02-19T07:28:55;100649.34;;;2.97;100.00
13690;BME280;6917;52.194;9.894;2023-02-19T07:31:22;100654.69;;;2.92;100.00
13690;BME280;6917;52.194;9.894;2023-02-19T07:33:48;100667.69;;;3.00;100.00
13690;BME280;6917;52.194;9.894;2023-02-19T07:36:15;100674.72;;;3.01;100.00
13690;BME280;6917;52.194;9.894;2023-02-19T07:38:42;100681.69;;;2.92;100.00
13690;BME280;6917;52.194;9.894;2023-02-19T07:41:07;100686.19;;;2.86;100.00
13690;BME280;6917;52.194;9.894;2023-02-19T07:43:35;100689.84;;;3.02;100.00
13690;BME280;6917;52.194;9.894;2023-02-19T07:46:09;100701.13;;;3.21;100.00
13690;BME280;6917;52.194;9.894;2023-02-19T07:48:35;100706.25;;;2.95;100.00
13690;BME280;6917;52.194;9.894;2023-02-19T07:51:02;100716.59;;;3.04;100.00
13690;BME280;6917;52.194;9.894;2023-02-19T07:53:28;100712.78;;;2.99;100.00
13690;BME280;6917;52.194;9.894;2023-02-19T07:55:58;100717.06;;;2.95;100.00
13690;BME280;6917;52.194;9.894;2023-02-19T07:58:24;100724.13;;;3.02;100.00
13690;BME280;6917;52.194;9.894;2023-02-19T08:00:50;100727.34;;;2.98;100.00
13690;BME280;6917;52.194;9.894;2023-02-19T08:03:15;100725.81;;;3.08;100.00
13690;BME280;6917;52.194;9.894;2023-02-19T08:05:41;100729.66;;;3.17;100.00
13690;BME280;6917;52.194;9.894;2023-02-19T08:08:09;100735.41;;;3.20;100.00
13690;BME280;6917;52.194;9.894;2023-02-19T08:10:35;100739.88;;;3.10;100.00
13690;BME280;6917;52.194;9.894;2023-02-19T08:13:19;100740.69;;;3.10;100.00
13690;BME280;6917;52.194;9.894;2023-02-19T08:18:15;100753.75;;;2.96;100.00
13690;BME280;6917;52.194;9.894;2023-02-19T08:20:41;100750.00;;;2.97;100.00
13690;BME280;6917;52.194;9.894;2023-02-19T08:23:07;100757.13;;;3.09;100.00
13690;BME280;6917;52.194;9.894;2023-02-19T08:25:33;100765.78;;;3.38;100.00
13690;BME280;6917;52.194;9.894;2023-02-19T08:27:59;100779.19;;;3.54;100.00
13690;BME280;6917;52.194;9.894;2023-02-19T08:30:26;100771.97;;;3.33;100.00
13690;BME280;6917;52.194;9.894;2023-02-19T08:32:51;100781.91;;;3.59;100.00
13690;BME280;6917;52.194;9.894;2023-02-19T08:35:17;100786.16;;;3.77;100.00
13690;BME280;6917;52.194;9.894;2023-02-19T08:37:42;100795.09;;;3.83;100.00
13690;BME280;6917;52.194;9.894;2023-02-19T08:40:08;100788.88;;;3.82;100.00
13690;BME280;6917;52.194;9.894;2023-02-19T08:42:33;100796.22;;;3.87;100.00
13690;BME280;6917;52.194;9.894;2023-02-19T08:44:58;100812.13;;;3.83;100.00
13690;BME280;6917;52.194;9.894;2023-02-19T08:47:24;100818.16;;;3.91;100.00
13690;BME280;6917;52.194;9.894;2023-02-19T08:49:49;100813.03;;;3.94;100.00
13690;BME280;6917;52.194;9.894;2023-02-19T08:52:14;100815.09;;;3.82;100.00
13690;BME280;6917;52.194;9.894;2023-02-19T08:54:40;100817.25;;;3.80;100.00
13690;BME280;6917;52.194;9.894;2023-02-19T08:57:05;100816.81;;;3.93;100.00
13690;BME280;6917;52.194;9.894;2023-02-19T08:59:31;100811.78;;;4.07;100.00
13690;BME280;6917;52.194;9.894;2023-02-19T09:01:59;100819.31;;;4.05;100.00
13690;BME280;6917;52.194;9.894;2023-02-19T09:04:24;100827.19;;;4.06;100.00
13690;BME280;6917;52.194;9.894;2023-02-19T09:06:50;100822.91;;;4.10;100.00
13690;BME280;6917;52.194;9.894;2023-02-19T09:09:15;100831.28;;;4.14;100.00
13690;BME280;6917;52.194;9.894;2023-02-19T09:11:40;100834.34;;;4.23;100.00
13690;BME280;6917;52.194;9.894;2023-02-19T09:14:06;100829.66;;;4.13;100.00
13690;BME280;6917;52.194;9.894;2023-02-19T09:16:35;100834.44;;;4.01;100.00
13690;BME280;6917;52.194;9.894;2023-02-19T09:19:01;100847.13;;;4.00;100.00
13690;BME280;6917;52.194;9.894;2023-02-19T09:21:27;100837.53;;;3.82;100.00
13690;BME280;6917;52.194;9.894;2023-02-19T09:23:52;100851.41;;;3.91;100.00
13690;BME280;6917;52.194;9.894;2023-02-19T09:26:17;100863.88;;;3.97;100.00
13690;BME280;6917;52.194;9.894;2023-02-19T09:28:43;100884.16;;;4.00;100.00
13690;BME280;6917;52.194;9.894;2023-02-19T09:31:11;100878.50;;;4.01;100.00
13690;BME280;6917;52.194;9.894;2023-02-19T09:33:37;100888.34;;;4.12;100.00
13690;BME280;6917;52.194;9.894;2023-02-19T09:36:03;100884.81;;;4.12;100.00
13690;BME280;6917;52.194;9.894;2023-02-19T09:38:28;100893.31;;;4.26;100.00
13690;BME280;6917;52.194;9.894;2023-02-19T09:40:58;100892.31;;;4.37;100.00
13690;BME280;6917;52.194;9.894;2023-02-19T09:43:29;100891.00;;;4.44;100.00
13690;BME280;6917;52.194;9.894;2023-02-19T09:48:42;100893.50;;;4.51;100.00
13690;BME280;6917;52.194;9.894;2023-02-19T09:51:08;100902.22;;;4.58;100.00
13690;BME280;6917;52.194;9.894;2023-02-19T09:53:42;100912.19;;;4.53;100.00
13690;BME280;6917;52.194;9.894;2023-02-19T09:56:08;100924.66;;;4.59;100.00
13690;BME280;6917;52.194;9.894;2023-02-19T09:58:35;100932.59;;;4.70;100.00
13690;BME280;6917;52.194;9.894;2023-02-19T10:01:04;100931.75;;;4.65;100.00
13690;BME280;6917;52.194;9.894;2023-02-19T10:03:37;100939.28;;;4.58;100.00
13690;BME280;6917;52.194;9.894;2023-02-19T10:06:07;100946.88;;;4.29;100.00
13690;BME280;6917;52.194;9.894;2023-02-19T10:08:36;100946.44;;;4.37;100.00
13690;BME280;6917;52.194;9.894;2023-02-19T10:11:03;100955.63;;;4.73;100.00
13690;BME280;6917;52.194;9.894;2023-02-19T10:13:33;100973.66;;;4.99;100.00
13690;BME280;6917;52.194;9.894;2023-02-19T10:16:02;100977.81;;;5.12;100.00
13690;BME280;6917;52.194;9.894;2023-02-19T10:18:35;100983.16;;;5.02;100.00
13690;BME280;6917;52.194;9.894;2023-02-19T10:21:02;100990.19;;;4.98;100.00
13690;BME280;6917;52.194;9.894;2023-02-19T10:23:27;100990.75;;;5.05;100.00
13690;BME280;6917;52.194;9.894;2023-02-19T10:25:57;100997.75;;;4.96;100.00
13690;BME280;6917;52.194;9.894;2023-02-19T10:28:26;101007.53;;;5.02;100.00
13690;BME280;6917;52.194;9.894;2023-02-19T10:30:54;101018.66;;;5.05;100.00
13690;BME280;6917;52.194;9.894;2023-02-19T10:33:21;101028.19;;;5.13;100.00
13690;BME280;6917;52.194;9.894;2023-02-19T10:36:04;101035.78;;;5.16;100.00
13690;BME280;6917;52.194;9.894;2023-02-19T10:38:35;101032.34;;;5.26;100.00
13690;BME280;6917;52.194;9.894;2023-02-19T10:41:11;101044.53;;;5.23;100.00
13690;BME280;6917;52.194;9.894;2023-02-19T10:43:40;101048.88;;;5.24;100.00
13690;BME280;6917;52.194;9.894;2023-02-19T10:46:21;101062.94;;;5.21;100.00
13690;BME280;6917;52.194;9.894;2023-02-19T10:48:59;101056.72;;;5.26;100.00
13690;BME280;6917;52.194;9.894;2023-02-19T10:51:36;101063.66;;;5.12;100.00
13690;BME280;6917;52.194;9.894;2023-02-19T10:54:18;101059.75;;;5.34;100.00
13690;BME280;6917;52.194;9.894;2023-02-19T10:56:44;101061.50;;;5.51;100.00
13690;BME280;6917;52.194;9.894;2023-02-19T11:02:01;101048.97;;;5.40;100.00
13690;BME280;6917;52.194;9.894;2023-02-19T11:04:32;101053.59;;;5.49;100.00
13690;BME280;6917;52.194;9.894;2023-02-19T11:07:09;101047.31;;;5.38;100.00
13690;BME280;6917;52.194;9.894;2023-02-19T11:09:39;101040.53;;;5.36;100.00
13690;BME280;6917;52.194;9.894;2023-02-19T11:12:08;101048.97;;;5.45;100.00
13690;BME280;6917;52.194;9.894;2023-02-19T11:14:34;101048.97;;;5.45;100.00
13690;BME280;6917;52.194;9.894;2023-02-19T11:17:01;101051.22;;;5.63;100.00
13690;BME280;6917;52.194;9.894;2023-02-19T11:19:41;101056.31;;;5.49;99.49
13690;BME280;6917;52.194;9.894;2023-02-19T11:24:57;101057.63;;;5.36;97.14
13690;BME280;6917;52.194;9.894;2023-02-19T11:27:25;101047.44;;;5.64;98.91
13690;BME280;6917;52.194;9.894;2023-02-19T11:29:51;101061.78;;;5.59;98.72
13690;BME280;6917;52.194;9.894;2023-02-19T11:34:44;101071.16;;;5.36;98.72
13690;BME280;6917;52.194;9.894;2023-02-19T11:37:18;101083.38;;;5.44;98.82
13690;BME280;6917;52.194;9.894;2023-02-19T11:39:49;101097.09;;;5.64;99.01
13690;BME280;6917;52.194;9.894;2023-02-19T11:42:34;101076.34;;;5.90;96.41
13690;BME280;6917;52.194;9.894;2023-02-19T11:48:14;101071.97;;;5.89;92.43
13690;BME280;6917;52.194;9.894;2023-02-19T11:50:58;101066.47;;;5.69;91.52
13690;BME280;6917;52.194;9.894;2023-02-19T11:53:33;101077.25;;;5.64;91.53
13690;BME280;6917;52.194;9.894;2023-02-19T11:56:35;101070.88;;;5.80;91.87
13690;BME280;6917;52.194;9.894;2023-02-19T11:59:04;101079.75;;;5.76;91.41
13690;BME280;6917;52.194;9.894;2023-02-19T12:07:16;101076.50;;;6.36;92.32
13690;BME280;6917;52.194;9.894;2023-02-19T12:10:18;101083.03;;;6.50;92.24
13690;BME280;6917;52.194;9.894;2023-02-19T12:18:37;101068.63;;;6.30;86.98
13690;BME280;6917;52.194;9.894;2023-02-19T12:26:39;101067.31;;;6.37;85.23
13690;BME280;6917;52.194;9.894;2023-02-19T12:35:08;101073.06;;;6.71;86.26
13690;BME280;6917;52.194;9.894;2023-02-19T12:43:08;101084.44;;;6.63;85.48
13690;BME280;6917;52.194;9.894;2023-02-19T12:45:45;101087.97;;;6.69;84.88
13690;BME280;6917;52.194;9.894;2023-02-19T12:50:38;101087.97;;;6.64;82.26
13690;BME280;6917;52.194;9.894;2023-02-19T12:53:23;101099.41;;;6.86;83.58
13690;BME280;6917;52.194;9.894;2023-02-19T12:55:52;101085.53;;;6.72;80.34
13690;BME280;6917;52.194;9.894;2023-02-19T13:01:11;101109.16;;;6.77;81.34
13690;BME280;6917;52.194;9.894;2023-02-19T13:06:32;101097.66;;;6.29;80.64
13690;BME280;6917;52.194;9.894;2023-02-19T13:11:43;101099.69;;;6.84;81.62
13690;BME280;6917;52.194;9.894;2023-02-19T13:14:20;101099.13;;;6.93;80.68
13690;BME280;6917;52.194;9.894;2023-02-19T13:16:53;101097.78;;;6.85;80.53
13690;BME280;6917;52.194;9.894;2023-02-19T13:19:21;101116.25;;;6.88;81.39
13690;BME280;6917;52.194;9.894;2023-02-19T13:21:51;101110.25;;;6.76;80.94
13690;BME280;6917;52.194;9.894;2023-02-19T13:24:40;101108.66;;;6.80;81.87
13690;BME280;6917;52.194;9.894;2023-02-19T13:30:21;101126.28;;;6.67;82.95
13690;BME280;6917;52.194;9.894;2023-02-19T13:38:19;101106.44;;;6.72;83.73
13690;BME280;6917;52.194;9.894;2023-02-19T13:40:53;101105.66;;;6.81;81.78
13690;BME280;6917;52.194;9.894;2023-02-19T13:43:24;101104.28;;;6.94;80.07
13690;BME280;6917;52.194;9.894;2023-02-19T13:45:59;101105.91;;;7.05;80.27
13690;BME280;6917;52.194;9.894;2023-02-19T14:04:53;101087.44;;;6.87;79.76
13690;BME280;6917;52.194;9.894;2023-02-19T14:09:45;101093.44;;;7.04;80.54
13690;BME280;6917;52.194;9.894;2023-02-19T14:14:45;101083.66;;;7.13;79.61
13690;BME280;6917;52.194;9.894;2023-02-19T14:17:27;101086.63;;;7.22;79.30
13690;BME280;6917;52.194;9.894;2023-02-19T14:28:12;101104.03;;;6.96;79.10
13690;BME280;6917;52.194;9.894;2023-02-19T14:30:51;101103.47;;;6.94;78.87
13690;BME280;6917;52.194;9.894;2023-02-19T14:33:21;101102.94;;;6.97;78.79
13690;BME280;6917;52.194;9.894;2023-02-19T14:35:53;101115.72;;;6.96;77.73
13690;BME280;6917;52.194;9.894;2023-02-19T14:38:22;101115.16;;;6.99;78.20
13690;BME280;6917;52.194;9.894;2023-02-19T14:40:49;101097.22;;;6.93;75.34
13690;BME280;6917;52.194;9.894;2023-02-19T14:43:18;101103.75;;;7.02;75.16
13690;BME280;6917;52.194;9.894;2023-02-19T14:45:56;101109.19;;;7.02;75.58
13690;BME280;6917;52.194;9.894;2023-02-19T14:48:29;101127.09;;;6.93;76.84
13690;BME280;6917;52.194;9.894;2023-02-19T14:51:02;101137.97;;;6.88;77.56
13690;BME280;6917;52.194;9.894;2023-02-19T14:53:29;101143.41;;;6.93;78.62
13690;BME280;6917;52.194;9.894;2023-02-19T14:55:58;101135.78;;;6.90;77.84
13690;BME280;6917;52.194;9.894;2023-02-19T14:58:30;101135.53;;;6.86;78.70
13690;BME280;6917;52.194;9.894;2023-02-19T15:00:56;101131.44;;;6.89;78.94
13690;BME280;6917;52.194;9.894;2023-02-19T15:03:35;101122.22;;;6.80;78.44
13690;BME280;6917;52.194;9.894;2023-02-19T15:06:05;101130.38;;;6.80;78.82
13690;BME280;6917;52.194;9.894;2023-02-19T15:08:34;101126.84;;;6.84;78.24